Terminal Aerodrome Forecast
Issued by NWS Jacksonville, FL

Home | Current Version | Previous Version | Text Only | Print | Product List | Glossary On
Versions: 1 2 3 4 5 6 7 8 9 10 11 12 13 14 15 16 17 18 19 20 21 22 23 24 25 26
000
FTUS42 KJAX 140500
TAFSSI
TAF
KSSI 140540Z 1406/1506 20003KT P6SM FEW015 SCT250
     FM141500 25005KT P6SM SCT040 BKN250
     FM141800 19007KT P6SM VCTS SCT045CB BKN250 PROB30 1418/1422 3SM
      TSRA BKN035CB
     FM150200 21004KT P6SM FEW035 SCT250=

USA.gov is the U.S. government's official web portal to all federal, state and local government web resources and services.